createdAt,value
2022-10-17T00:00:43.908Z,96855.94
2022-10-17T00:03:10.730Z,96857.16
2022-10-17T00:05:41.990Z,96861.16
2022-10-17T00:08:10.523Z,96858.84
2022-10-17T00:10:37.872Z,96860.50
2022-10-17T00:13:04.962Z,96863.56
2022-10-17T00:15:32.198Z,96862.81
2022-10-17T00:17:59.479Z,96867.91
2022-10-17T00:20:26.695Z,96869.66
2022-10-17T00:22:53.707Z,96868.06
2022-10-17T00:25:20.446Z,96874.25
2022-10-17T00:27:47.017Z,96868.44
2022-10-17T00:30:15.601Z,96866.66
2022-10-17T00:32:42.531Z,96865.09
2022-10-17T00:35:09.406Z,96871.38
2022-10-17T00:37:36.238Z,96862.22
2022-10-17T00:40:03.863Z,96859.41
2022-10-17T00:42:30.863Z,96869.16
2022-10-17T00:45:03.038Z,96862.97
2022-10-17T00:47:30.940Z,96869.97
2022-10-17T00:49:58.634Z,96864.41
2022-10-17T00:52:29.237Z,96861.53
2022-10-17T00:55:00.416Z,96855.66
2022-10-17T00:57:31.051Z,96846.06
2022-10-17T00:59:59.567Z,96848.16
2022-10-17T01:02:26.475Z,96846.44
2022-10-17T01:04:56.551Z,96849.88
2022-10-17T01:07:23.437Z,96857.22
2022-10-17T01:09:50.323Z,96856.19
2022-10-17T01:12:26.103Z,96850.69
2022-10-17T01:15:08.311Z,96847.59
2022-10-17T01:17:43.932Z,96846.69
2022-10-17T01:20:47.821Z,96852.31
2022-10-17T01:23:42.348Z,96854.59
2022-10-17T01:26:24.090Z,96853.16
2022-10-17T01:29:09.126Z,96856.19
2022-10-17T01:31:47.622Z,96853.16
2022-10-17T01:34:25.253Z,96853.25
2022-10-17T01:36:58.217Z,96853.72
2022-10-17T01:39:34.403Z,96855.00
2022-10-17T01:42:23.382Z,96854.38
2022-10-17T01:45:22.847Z,96849.25
2022-10-17T01:47:52.838Z,96856.91
2022-10-17T01:50:49.468Z,96853.75
2022-10-17T01:53:29.128Z,96856.13
2022-10-17T01:56:00.430Z,96848.13
2022-10-17T01:58:32.028Z,96857.28
2022-10-17T02:01:03.026Z,96854.28
2022-10-17T02:03:30.807Z,96863.41
2022-10-17T02:05:57.394Z,96850.41
2022-10-17T02:08:51.512Z,96854.25
2022-10-17T02:11:21.518Z,96850.59
2022-10-17T02:14:15.868Z,96860.72
2022-10-17T02:17:05.508Z,96853.50
2022-10-17T02:20:01.939Z,96858.22
2022-10-17T02:22:37.623Z,96860.84
2022-10-17T02:25:21.355Z,96862.03
2022-10-17T02:28:16.699Z,96856.38
2022-10-17T02:30:55.074Z,96868.34
2022-10-17T02:33:29.342Z,96866.56
2022-10-17T02:35:59.945Z,96866.19
2022-10-17T02:38:29.403Z,96870.44
2022-10-17T02:40:56.263Z,96876.28
2022-10-17T02:43:23.883Z,96869.47
2022-10-17T02:45:52.738Z,96866.97
2022-10-17T02:48:19.339Z,96873.22
2022-10-17T02:51:20.384Z,96875.00
2022-10-17T02:54:22.945Z,96880.19
2022-10-17T02:57:01.604Z,96872.66
2022-10-17T02:59:31.302Z,96877.78
2022-10-17T03:01:58.198Z,96869.06
2022-10-17T03:04:24.804Z,96873.75
2022-10-17T03:06:51.460Z,96884.31
2022-10-17T03:09:18.063Z,96883.34
2022-10-17T03:11:44.699Z,96882.84
2022-10-17T03:14:11.334Z,96887.53
2022-10-17T03:16:37.957Z,96884.88
2022-10-17T03:19:05.023Z,96890.50
2022-10-17T03:21:31.655Z,96888.41
2022-10-17T03:23:58.271Z,96890.09
2022-10-17T03:26:25.183Z,96885.88
2022-10-17T03:28:53.694Z,96892.81
2022-10-17T03:31:21.583Z,96887.41
2022-10-17T03:33:48.219Z,96888.34
2022-10-17T03:36:16.942Z,96890.94
2022-10-17T03:38:44.661Z,96898.75
2022-10-17T03:41:11.604Z,96896.91
2022-10-17T03:43:39.607Z,96903.31
2022-10-17T03:46:07.407Z,96906.56
2022-10-17T03:48:34.192Z,96909.59
2022-10-17T03:51:03.180Z,96910.03
2022-10-17T03:53:29.854Z,96912.63
2022-10-17T03:55:57.270Z,96902.91
2022-10-17T03:58:23.977Z,96908.50
2022-10-17T04:00:50.622Z,96906.91
2022-10-17T04:03:17.502Z,96906.41
2022-10-17T04:05:44.215Z,96915.41
2022-10-17T04:08:10.812Z,96909.00
2022-10-17T04:10:37.517Z,96915.53
2022-10-17T04:13:04.651Z,96914.81
2022-10-17T04:15:31.259Z,96908.19
2022-10-17T04:17:57.847Z,96911.63
2022-10-17T04:20:24.502Z,96918.44
2022-10-17T04:22:51.076Z,96913.34
2022-10-17T04:25:17.731Z,96909.00
2022-10-17T04:27:44.303Z,96916.53
2022-10-17T04:30:11.340Z,96912.81
2022-10-17T04:32:41.308Z,96915.41
2022-10-17T04:35:08.427Z,96914.63
2022-10-17T04:37:35.035Z,96916.81
2022-10-17T04:40:01.599Z,96916.63
2022-10-17T04:42:29.639Z,96925.22
2022-10-17T04:44:56.409Z,96923.84
2022-10-17T04:47:23.002Z,96923.03
2022-10-17T04:49:49.589Z,96926.72
2022-10-17T04:52:16.307Z,96922.53
2022-10-17T04:54:42.884Z,96923.63
2022-10-17T04:57:09.671Z,96923.84
2022-10-17T04:59:36.283Z,96929.25
2022-10-17T05:02:03.144Z,96928.53
2022-10-17T05:04:29.743Z,96931.25
2022-10-17T05:06:56.343Z,96929.84
2022-10-17T05:09:22.906Z,96919.16
2022-10-17T05:11:49.503Z,96924.84
2022-10-17T05:14:16.190Z,96924.84
2022-10-17T05:16:42.791Z,96931.94
2022-10-17T05:19:09.439Z,96939.47
2022-10-17T05:21:37.454Z,96935.84
2022-10-17T05:24:08.566Z,96935.66
2022-10-17T05:26:35.234Z,96935.06
2022-10-17T05:29:05.510Z,96933.44
2022-10-17T05:31:32.317Z,96938.66
2022-10-17T05:34:02.780Z,96937.84
2022-10-17T05:36:29.570Z,96942.13
2022-10-17T05:38:56.214Z,96942.72
2022-10-17T05:41:22.921Z,96954.63
2022-10-17T05:43:50.402Z,96953.72
2022-10-17T05:46:17.127Z,96962.09
2022-10-17T05:48:43.750Z,96959.38
2022-10-17T05:51:11.106Z,96963.72
2022-10-17T05:53:40.224Z,96967.38
2022-10-17T05:56:08.692Z,96970.56
2022-10-17T05:58:49.668Z,96967.56
2022-10-17T06:01:18.468Z,96961.97
2022-10-17T06:03:45.110Z,96966.09
2022-10-17T06:06:13.686Z,96961.13
2022-10-17T06:08:40.407Z,96969.38
2022-10-17T06:11:09.935Z,96973.78
2022-10-17T06:13:38.550Z,96975.06
2022-10-17T06:16:05.977Z,96973.94
2022-10-17T06:18:32.979Z,96974.72
2022-10-17T06:21:07.971Z,96971.16
2022-10-17T06:23:34.646Z,96980.94
2022-10-17T06:26:03.371Z,96980.13
2022-10-17T06:28:30.610Z,96987.81
2022-10-17T06:30:57.248Z,96983.22
2022-10-17T06:33:23.911Z,96980.00
2022-10-17T06:35:55.425Z,96987.53
2022-10-17T06:38:22.958Z,96983.22
2022-10-17T06:40:49.825Z,96981.97
2022-10-17T06:43:16.485Z,96985.88
2022-10-17T06:45:43.095Z,96987.69
2022-10-17T06:48:09.677Z,96991.47
2022-10-17T06:50:36.317Z,97001.06
2022-10-17T06:53:03.187Z,97002.09
2022-10-17T06:55:31.823Z,97002.66
2022-10-17T06:57:58.615Z,97001.22
2022-10-17T07:00:26.836Z,97004.22
2022-10-17T07:02:53.500Z,97011.94
2022-10-17T07:05:20.215Z,97014.56
2022-10-17T07:07:48.561Z,97004.44
2022-10-17T07:10:17.635Z,96998.22
2022-10-17T07:12:45.863Z,97008.66
2022-10-17T07:15:13.120Z,97008.41
2022-10-17T07:17:39.703Z,97019.91
2022-10-17T07:20:06.826Z,97017.50
2022-10-17T07:22:33.462Z,97024.09
2022-10-17T07:25:00.198Z,97021.34
2022-10-17T07:27:27.290Z,97024.63
2022-10-17T07:29:54.060Z,97024.13
2022-10-17T07:32:20.625Z,97028.16
2022-10-17T07:34:47.184Z,97027.94
2022-10-17T07:37:13.787Z,97036.34
2022-10-17T07:39:40.420Z,97034.53
2022-10-17T07:42:07.874Z,97032.97
2022-10-17T07:44:35.577Z,97033.63
2022-10-17T07:47:02.382Z,97031.94
2022-10-17T07:49:29.373Z,97035.38
2022-10-17T07:51:56.081Z,97042.47
2022-10-17T07:54:22.841Z,97039.16
2022-10-17T07:56:50.779Z,97036.78
2022-10-17T07:59:20.309Z,97039.78
2022-10-17T08:01:47.001Z,97035.56
2022-10-17T08:04:13.587Z,97039.78
2022-10-17T08:06:40.202Z,97042.03
2022-10-17T08:09:06.784Z,97034.28
2022-10-17T08:11:33.494Z,97045.38
2022-10-17T08:14:00.052Z,97039.34
2022-10-17T08:16:26.778Z,97045.13
2022-10-17T08:18:53.407Z,97043.69
2022-10-17T08:21:20.061Z,97046.09
2022-10-17T08:23:46.688Z,97043.34
2022-10-17T08:26:16.885Z,97039.63
2022-10-17T08:28:43.679Z,97049.19
2022-10-17T08:31:13.347Z,97044.69
2022-10-17T08:33:41.118Z,97043.06
2022-10-17T08:36:09.117Z,97041.19
2022-10-17T08:38:37.625Z,97040.97
2022-10-17T08:41:13.709Z,97039.22
2022-10-17T08:44:05.840Z,97040.69
2022-10-17T08:46:36.876Z,97045.72
2022-10-17T08:49:12.015Z,97039.53
2022-10-17T08:51:48.005Z,97032.44
2022-10-17T08:54:20.395Z,97044.13
2022-10-17T08:56:50.110Z,97044.50
2022-10-17T08:59:27.690Z,97036.19
2022-10-17T09:02:28.337Z,97034.13
2022-10-17T09:05:26.291Z,97031.59
2022-10-17T09:08:16.286Z,97034.66
2022-10-17T09:10:57.590Z,97029.56
2022-10-17T09:13:29.848Z,97026.81
2022-10-17T09:16:14.943Z,97033.72
2022-10-17T09:18:46.387Z,97022.38
2022-10-17T09:21:47.927Z,97023.34
2022-10-17T09:24:53.680Z,97021.88
2022-10-17T09:27:20.232Z,97020.09
2022-10-17T09:29:50.482Z,97021.69
2022-10-17T09:32:21.971Z,97024.28
2022-10-17T09:34:48.833Z,97026.72
2022-10-17T09:37:17.299Z,97026.38
2022-10-17T09:39:45.082Z,97018.84
2022-10-17T09:42:15.374Z,97016.38
2022-10-17T09:44:47.907Z,97014.88
2022-10-17T09:47:43.721Z,97015.22
2022-10-17T09:50:25.440Z,97019.28
2022-10-17T09:52:53.963Z,97017.88
2022-10-17T09:55:26.610Z,97021.31
2022-10-17T09:57:59.356Z,97028.31
2022-10-17T10:00:32.956Z,97032.09
2022-10-17T10:03:21.547Z,97027.34
2022-10-17T10:06:12.394Z,97031.00
2022-10-17T10:08:52.684Z,97024.28
2022-10-17T10:11:24.554Z,97039.41
2022-10-17T10:13:52.257Z,97023.28
2022-10-17T10:16:31.091Z,97026.22
2022-10-17T10:18:57.977Z,97025.28
2022-10-17T10:21:26.807Z,97028.38
2022-10-17T10:23:59.574Z,97030.41
2022-10-17T10:26:30.132Z,97031.94
2022-10-17T10:29:07.789Z,97026.22
2022-10-17T10:31:40.107Z,97029.44
2022-10-17T10:34:18.588Z,97026.16
2022-10-17T10:36:47.073Z,97019.06
2022-10-17T10:39:47.584Z,97015.03
2022-10-17T10:42:28.713Z,97024.00
2022-10-17T10:45:00.041Z,97027.59
2022-10-17T10:47:32.508Z,97015.16
2022-10-17T10:50:20.135Z,97019.63
2022-10-17T10:52:52.449Z,97013.72
2022-10-17T10:55:40.306Z,97014.84
2022-10-17T10:58:33.636Z,97017.69
2022-10-17T11:03:33.864Z,97027.00
2022-10-17T11:06:23.914Z,97019.16
2022-10-17T11:09:04.291Z,97019.22
2022-10-17T11:11:34.618Z,97026.22
2022-10-17T11:14:13.075Z,97021.22
2022-10-17T11:16:47.691Z,97017.63
2022-10-17T11:19:25.942Z,97016.84
2022-10-17T11:21:55.724Z,97013.28
2022-10-17T11:24:29.988Z,97016.97
2022-10-17T11:27:00.665Z,97006.78
2022-10-17T11:29:36.802Z,97004.50
2022-10-17T11:32:09.425Z,97007.88
2022-10-17T11:34:42.423Z,97002.75
2022-10-17T11:37:20.614Z,96999.69
2022-10-17T11:40:21.974Z,97013.72
2022-10-17T11:43:00.002Z,96998.88
2022-10-17T11:45:31.465Z,97002.22
2022-10-17T11:48:06.401Z,97002.75
2022-10-17T11:53:43.199Z,96989.41
2022-10-17T11:56:11.543Z,96989.31
2022-10-17T11:58:55.091Z,96992.81
2022-10-17T12:01:35.581Z,96988.22
2022-10-17T12:04:05.912Z,96979.97
2022-10-17T12:07:10.902Z,96984.91
2022-10-17T12:10:15.990Z,96988.34
2022-10-17T12:12:43.465Z,96984.94
2022-10-17T12:15:27.987Z,96981.56
2022-10-17T12:17:55.703Z,96984.31
2022-10-17T12:20:25.166Z,96976.63
2022-10-17T12:22:53.269Z,96986.31
2022-10-17T12:25:30.084Z,96985.59
2022-10-17T12:28:30.794Z,96982.53
2022-10-17T12:31:10.017Z,96985.84
2022-10-17T12:33:58.103Z,96986.66
2022-10-17T12:36:28.175Z,96975.03
2022-10-17T12:39:03.995Z,96987.75
2022-10-17T12:41:39.540Z,96989.19
2022-10-17T12:44:36.675Z,96980.19
2022-10-17T12:47:06.197Z,96983.38
2022-10-17T12:49:49.690Z,96985.78
2022-10-17T12:52:27.002Z,96975.50
2022-10-17T12:55:11.621Z,96979.19
2022-10-17T12:57:42.307Z,96980.78
2022-10-17T13:00:14.955Z,96978.31
2022-10-17T13:02:42.186Z,96979.81
2022-10-17T13:05:16.747Z,96974.97
2022-10-17T13:07:48.502Z,96984.44
2022-10-17T13:10:24.688Z,96978.97
2022-10-17T13:12:58.852Z,96978.78
2022-10-17T13:15:25.731Z,96982.97
2022-10-17T13:18:01.003Z,96975.56
2022-10-17T13:20:31.613Z,96978.72
2022-10-17T13:22:59.171Z,96978.09
2022-10-17T13:25:27.114Z,96975.38
2022-10-17T13:28:06.672Z,96975.56
2022-10-17T13:30:35.787Z,96975.09
2022-10-17T13:33:03.452Z,96982.69
2022-10-17T13:35:59.068Z,96973.47
2022-10-17T13:38:29.893Z,96984.00
2022-10-17T13:41:05.770Z,96990.72
2022-10-17T13:43:38.826Z,96989.00
2022-10-17T13:46:32.670Z,96990.59
2022-10-17T13:48:53.691Z,97000.47
2022-10-17T13:51:20.496Z,96993.72
2022-10-17T13:53:47.123Z,96976.91
2022-10-17T13:56:27.813Z,96983.16
2022-10-17T13:59:05.117Z,96982.50
2022-10-17T14:01:32.263Z,96987.88
2022-10-17T14:04:20.226Z,96986.16
2022-10-17T14:06:49.755Z,96990.06
2022-10-17T14:09:27.786Z,96986.28
2022-10-17T14:12:06.302Z,96990.91
2022-10-17T14:14:51.579Z,96994.94
2022-10-17T14:17:30.599Z,96990.78
2022-10-17T14:23:10.541Z,96996.22
2022-10-17T14:25:39.495Z,96993.31
2022-10-17T14:28:12.749Z,97007.38
2022-10-17T14:30:57.528Z,96999.69
2022-10-17T14:33:30.323Z,96999.19
2022-10-17T14:35:59.539Z,97004.22
2022-10-17T14:38:27.378Z,97001.41
2022-10-17T14:41:09.608Z,96998.41
2022-10-17T14:43:44.147Z,97000.59
2022-10-17T14:46:16.005Z,97000.50
2022-10-17T14:48:43.167Z,97002.38
2022-10-17T14:51:16.361Z,96999.00
2022-10-17T14:54:21.055Z,97012.19
2022-10-17T14:56:53.410Z,97016.34
2022-10-17T14:59:51.616Z,97003.03
2022-10-17T15:02:11.550Z,97008.13
2022-10-17T15:04:38.159Z,97004.34
2022-10-17T15:07:05.059Z,97004.09
2022-10-17T15:09:31.723Z,97003.03
2022-10-17T15:12:07.055Z,97001.31
2022-10-17T15:14:33.617Z,97006.53
2022-10-17T15:17:00.698Z,97000.94
2022-10-17T15:19:27.306Z,97007.88
2022-10-17T15:21:53.903Z,97015.03
2022-10-17T15:24:20.513Z,97010.50
2022-10-17T15:26:47.145Z,97018.09
2022-10-17T15:29:16.172Z,97013.28
2022-10-17T15:31:42.838Z,97006.63
2022-10-17T15:34:09.410Z,97013.47
2022-10-17T15:36:50.790Z,97029.16
2022-10-17T15:39:17.365Z,97029.19
2022-10-17T15:41:44.196Z,97020.41
2022-10-17T15:44:11.150Z,97031.97
2022-10-17T15:46:40.905Z,97036.66
2022-10-17T15:49:12.132Z,97035.78
2022-10-17T15:51:39.329Z,97035.53
2022-10-17T15:54:06.401Z,97038.94
2022-10-17T15:56:42.325Z,97036.25
2022-10-17T15:59:17.973Z,97038.78
2022-10-17T16:01:45.177Z,97039.56
2022-10-17T16:04:14.820Z,97040.53
2022-10-17T16:06:44.232Z,97038.16
2022-10-17T16:09:11.103Z,97041.28
2022-10-17T16:11:40.606Z,97045.81
2022-10-17T16:14:11.517Z,97048.81
2022-10-17T16:16:38.755Z,97049.38
2022-10-17T16:19:05.760Z,97054.09
2022-10-17T16:21:35.157Z,97054.28
2022-10-17T16:24:02.183Z,97056.06
2022-10-17T16:26:29.519Z,97059.75
2022-10-17T16:28:58.116Z,97066.81
2022-10-17T16:31:31.192Z,97065.00
2022-10-17T16:33:59.262Z,97067.28
2022-10-17T16:36:25.883Z,97060.38
2022-10-17T16:38:54.138Z,97071.38
2022-10-17T16:41:22.611Z,97070.56
2022-10-17T16:43:50.743Z,97075.34
2022-10-17T16:46:18.262Z,97075.44
2022-10-17T16:48:45.740Z,97081.44
2022-10-17T16:51:13.662Z,97087.53
2022-10-17T16:53:43.751Z,97090.31
2022-10-17T16:56:21.823Z,97086.91
2022-10-17T16:58:49.187Z,97099.00
2022-10-17T17:01:18.834Z,97098.31
2022-10-17T17:03:47.350Z,97096.97
2022-10-17T17:06:16.505Z,97100.63
2022-10-17T17:08:43.741Z,97105.34
2022-10-17T17:11:13.430Z,97104.66
2022-10-17T17:13:40.835Z,97111.16
2022-10-17T17:16:09.420Z,97114.25
2022-10-17T17:18:36.261Z,97111.66
2022-10-17T17:21:04.787Z,97106.63
2022-10-17T17:23:33.943Z,97109.59
2022-10-17T17:26:04.021Z,97113.91
2022-10-17T17:28:32.209Z,97119.00
2022-10-17T17:30:58.828Z,97107.81
2022-10-17T17:33:26.458Z,97119.97
2022-10-17T17:36:00.515Z,97119.97
2022-10-17T17:38:31.813Z,97125.38
2022-10-17T17:40:58.582Z,97132.53
2022-10-17T17:43:25.514Z,97129.38
2022-10-17T17:45:52.491Z,97128.56
2022-10-17T17:48:19.214Z,97132.31
2022-10-17T17:50:46.566Z,97141.09
2022-10-17T17:53:16.215Z,97143.22
2022-10-17T17:55:42.798Z,97145.03
2022-10-17T17:58:09.891Z,97146.75
2022-10-17T18:00:36.526Z,97141.81
2022-10-17T18:03:03.302Z,97147.16
2022-10-17T18:05:30.690Z,97142.34
2022-10-17T18:07:57.458Z,97146.97
2022-10-17T18:10:24.054Z,97137.28
2022-10-17T18:12:50.686Z,97143.91
2022-10-17T18:15:17.390Z,97142.50
2022-10-17T18:17:44.010Z,97147.00
2022-10-17T18:20:11.034Z,97158.75
2022-10-17T18:22:37.642Z,97142.59
2022-10-17T18:25:05.652Z,97152.53
2022-10-17T18:27:32.246Z,97149.81
2022-10-17T18:29:58.902Z,97151.97
2022-10-17T18:32:25.494Z,97155.34
2022-10-17T18:34:52.241Z,97147.53
2022-10-17T18:37:18.850Z,97163.34
2022-10-17T18:39:51.497Z,97158.22
2022-10-17T18:42:18.582Z,97163.66
2022-10-17T18:44:46.925Z,97163.50
2022-10-17T18:47:13.530Z,97163.34
2022-10-17T18:49:40.476Z,97173.28
2022-10-17T18:52:07.147Z,97168.31
2022-10-17T18:54:34.733Z,97168.09
2022-10-17T18:57:01.379Z,97174.66
2022-10-17T18:59:27.976Z,97172.09
2022-10-17T19:01:54.650Z,97168.84
2022-10-17T19:04:21.482Z,97169.75
2022-10-17T19:06:48.143Z,97160.97
2022-10-17T19:09:15.640Z,97162.13
2022-10-17T19:11:42.925Z,97160.22
2022-10-17T19:14:14.124Z,97158.13
2022-10-17T19:16:45.543Z,97157.97
2022-10-17T19:19:12.114Z,97162.63
2022-10-17T19:21:39.299Z,97155.44
2022-10-17T19:24:10.703Z,97164.53
2022-10-17T19:26:38.202Z,97158.78
2022-10-17T19:29:05.067Z,97168.50
2022-10-17T19:31:32.956Z,97165.31
2022-10-17T19:34:00.212Z,97164.97
2022-10-17T19:36:32.518Z,97156.50
2022-10-17T19:39:04.003Z,97154.69
2022-10-17T19:41:31.010Z,97156.91
2022-10-17T19:43:58.183Z,97162.44
2022-10-17T19:46:26.789Z,97156.91
2022-10-17T19:48:53.851Z,97157.94
2022-10-17T19:51:24.410Z,97151.56
2022-10-17T19:53:52.368Z,97151.56
2022-10-17T19:56:20.929Z,97152.91
2022-10-17T19:58:48.525Z,97156.72
2022-10-17T20:01:17.971Z,97152.28
2022-10-17T20:03:44.881Z,97159.94
2022-10-17T20:06:12.216Z,97161.19
2022-10-17T20:08:39.914Z,97160.66
2022-10-17T20:11:15.769Z,97161.28
2022-10-17T20:13:43.262Z,97167.94
2022-10-17T20:16:14.089Z,97164.63
2022-10-17T20:18:41.025Z,97171.94
2022-10-17T20:21:10.578Z,97170.56
2022-10-17T20:23:37.824Z,97163.66
2022-10-17T20:26:25.367Z,97171.47
2022-10-17T20:28:53.668Z,97176.88
2022-10-17T20:31:20.822Z,97169.81
2022-10-17T20:33:47.539Z,97167.94
2022-10-17T20:36:14.821Z,97173.38
2022-10-17T20:38:41.431Z,97173.19
2022-10-17T20:41:09.725Z,97179.00
2022-10-17T20:43:38.506Z,97181.59
2022-10-17T20:46:22.877Z,97176.81
2022-10-17T20:48:58.945Z,97173.19
2022-10-17T20:51:26.431Z,97187.25
2022-10-17T20:53:53.806Z,97187.25
2022-10-17T20:56:24.142Z,97194.06
2022-10-17T20:58:56.239Z,97191.88
2022-10-17T21:01:24.176Z,97189.06
2022-10-17T21:03:51.415Z,97187.84
2022-10-17T21:06:18.972Z,97191.88
2022-10-17T21:08:46.976Z,97190.97
2022-10-17T21:11:22.088Z,97190.75
2022-10-17T21:13:57.750Z,97195.06
2022-10-17T21:16:25.705Z,97197.78
2022-10-17T21:18:52.842Z,97198.56
2022-10-17T21:21:40.499Z,97193.28
2022-10-17T21:24:14.132Z,97200.50
2022-10-17T21:26:42.544Z,97193.38
2022-10-17T21:29:10.273Z,97196.16
2022-10-17T21:31:39.155Z,97202.69
2022-10-17T21:34:12.438Z,97196.69
2022-10-17T21:36:38.979Z,97196.38
2022-10-17T21:39:05.598Z,97191.97
2022-10-17T21:41:32.683Z,97193.47
2022-10-17T21:44:20.884Z,97198.28
2022-10-17T21:46:48.226Z,97193.88
2022-10-17T21:49:18.921Z,97198.50
2022-10-17T21:51:47.569Z,97192.25
2022-10-17T21:54:15.525Z,97193.50
2022-10-17T21:56:43.043Z,97188.75
2022-10-17T21:59:09.711Z,97191.38
2022-10-17T22:01:39.541Z,97192.28
2022-10-17T22:04:08.880Z,97189.75
2022-10-17T22:06:40.059Z,97193.84
2022-10-17T22:09:11.523Z,97186.44
2022-10-17T22:11:38.804Z,97182.41
2022-10-17T22:14:08.276Z,97184.22
2022-10-17T22:16:35.295Z,97187.00
2022-10-17T22:19:06.292Z,97184.00
2022-10-17T22:21:35.186Z,97189.03
2022-10-17T22:24:04.981Z,97189.00
2022-10-17T22:26:33.540Z,97187.94
2022-10-17T22:29:00.614Z,97184.94
2022-10-17T22:31:27.310Z,97184.47
2022-10-17T22:33:53.919Z,97188.63
2022-10-17T22:36:20.551Z,97186.66
2022-10-17T22:38:47.180Z,97185.28
2022-10-17T22:41:13.771Z,97179.63
2022-10-17T22:43:40.387Z,97189.94
2022-10-17T22:46:08.087Z,97176.34
2022-10-17T22:48:35.350Z,97185.03
2022-10-17T22:51:02.621Z,97181.44
2022-10-17T22:53:30.058Z,97182.44
2022-10-17T22:55:59.438Z,97182.50
2022-10-17T22:58:27.249Z,97186.88
2022-10-17T23:00:54.227Z,97184.63
2022-10-17T23:03:21.851Z,97189.00
2022-10-17T23:05:49.498Z,97185.88
2022-10-17T23:08:17.959Z,97179.13
2022-10-17T23:10:45.603Z,97179.81
2022-10-17T23:13:12.325Z,97169.81
2022-10-17T23:15:39.293Z,97170.00
2022-10-17T23:18:06.002Z,97170.09
2022-10-17T23:20:32.916Z,97178.19
2022-10-17T23:22:59.508Z,97162.00
2022-10-17T23:25:26.540Z,97170.59
2022-10-17T23:27:53.158Z,97175.28
2022-10-17T23:30:19.774Z,97176.75
2022-10-17T23:32:46.439Z,97171.06
2022-10-17T23:35:13.051Z,97176.09
2022-10-17T23:37:39.623Z,97177.94
2022-10-17T23:40:06.823Z,97178.50
2022-10-17T23:42:33.395Z,97166.09
2022-10-17T23:45:00.010Z,97170.00
2022-10-17T23:47:26.609Z,97167.91
2022-10-17T23:49:53.191Z,97162.94
2022-10-17T23:52:19.789Z,97167.09
2022-10-17T23:54:46.351Z,97165.81
2022-10-17T23:57:12.956Z,97165.94
2022-10-17T23:59:39.602Z,97164.41
